createdAt,value
2023-11-28T00:01:47.320Z,98729.25
2023-11-28T00:04:20.365Z,98724.84
2023-11-28T00:06:55.342Z,98729.25
2023-11-28T00:09:28.211Z,98732.66
2023-11-28T00:12:01.083Z,98732.56
2023-11-28T00:14:33.984Z,98741.25
2023-11-28T00:17:07.212Z,98734.13
2023-11-28T00:19:40.191Z,98735.72
2023-11-28T00:22:14.472Z,98725.97
2023-11-28T00:24:47.378Z,98733.63
2023-11-28T00:27:20.237Z,98722.16
2023-11-28T00:29:53.676Z,98715.03
2023-11-28T00:32:26.679Z,98714.09
2023-11-28T00:35:02.805Z,98707.91
2023-11-28T00:37:40.982Z,98698.25
2023-11-28T00:40:15.055Z,98703.50
2023-11-28T00:42:48.819Z,98702.22
2023-11-28T00:45:25.780Z,98698.13
2023-11-28T00:47:59.802Z,98690.44
2023-11-28T00:50:32.881Z,98690.50
2023-11-28T00:53:07.300Z,98688.88
2023-11-28T00:55:40.469Z,98694.25
2023-11-28T00:58:13.457Z,98684.00
2023-11-28T01:00:46.350Z,98685.03
2023-11-28T01:03:19.256Z,98681.72
2023-11-28T01:05:52.447Z,98681.00
2023-11-28T01:08:26.932Z,98680.41
2023-11-28T01:10:59.952Z,98671.81
2023-11-28T01:13:33.007Z,98678.06
2023-11-28T01:16:06.685Z,98677.28
2023-11-28T01:18:39.621Z,98673.03
2023-11-28T01:21:13.725Z,98673.09
2023-11-28T01:23:47.970Z,98668.81
2023-11-28T01:26:20.938Z,98672.38
2023-11-28T01:28:53.900Z,98665.50
2023-11-28T01:31:29.478Z,98660.38
2023-11-28T01:34:02.628Z,98664.91
2023-11-28T01:36:35.561Z,98672.03
2023-11-28T01:39:10.067Z,98659.09
2023-11-28T01:41:47.799Z,98653.06
2023-11-28T01:44:20.831Z,98652.34
2023-11-28T01:46:55.026Z,98655.97
2023-11-28T01:49:33.947Z,98652.59
2023-11-28T01:52:09.120Z,98645.69
2023-11-28T01:54:45.135Z,98644.97
2023-11-28T01:57:18.164Z,98631.94
2023-11-28T01:59:51.198Z,98640.69
2023-11-28T02:02:24.691Z,98646.00
2023-11-28T02:04:57.646Z,98647.81
2023-11-28T02:07:30.832Z,98639.97
2023-11-28T02:10:05.564Z,98633.94
2023-11-28T02:12:38.503Z,98641.88
2023-11-28T02:15:12.134Z,98635.81
2023-11-28T02:17:45.216Z,98633.22
2023-11-28T02:20:20.956Z,98635.00
2023-11-28T02:22:53.893Z,98628.06
2023-11-28T02:25:29.956Z,98627.25
2023-11-28T02:28:04.917Z,98618.53
2023-11-28T02:30:37.795Z,98620.31
2023-11-28T02:33:10.795Z,98617.75
2023-11-28T02:35:43.865Z,98609.94
2023-11-28T02:38:17.285Z,98608.25
2023-11-28T02:40:50.157Z,98603.91
2023-11-28T02:43:24.559Z,98594.38
2023-11-28T02:45:57.698Z,98594.47
2023-11-28T02:48:31.611Z,98599.75
2023-11-28T02:51:06.075Z,98591.09
2023-11-28T02:53:39.977Z,98592.84
2023-11-28T02:56:13.217Z,98586.47
2023-11-28T02:58:47.582Z,98590.34
2023-11-28T03:01:20.715Z,98581.69
2023-11-28T03:03:53.601Z,98577.38
2023-11-28T03:06:26.660Z,98574.03
2023-11-28T03:08:59.506Z,98567.91
2023-11-28T03:11:32.431Z,98567.91
2023-11-28T03:14:06.801Z,98564.47
2023-11-28T03:16:40.180Z,98559.28
2023-11-28T03:19:13.169Z,98560.16
2023-11-28T03:21:46.086Z,98559.31
2023-11-28T03:24:19.069Z,98564.59
2023-11-28T03:26:51.937Z,98556.75
2023-11-28T03:29:26.221Z,98546.41
2023-11-28T03:31:59.259Z,98540.34
2023-11-28T03:34:32.446Z,98542.19
2023-11-28T03:37:05.363Z,98537.91
2023-11-28T03:39:38.205Z,98541.47
2023-11-28T03:42:11.572Z,98537.16
2023-11-28T03:44:45.791Z,98539.84
2023-11-28T03:47:19.108Z,98535.53
2023-11-28T03:49:52.010Z,98532.09
2023-11-28T03:52:24.925Z,98530.44
2023-11-28T03:54:58.182Z,98516.53
2023-11-28T03:57:31.259Z,98520.91
2023-11-28T04:00:07.168Z,98520.06
2023-11-28T04:02:40.289Z,98516.56
2023-11-28T04:05:14.770Z,98519.19
2023-11-28T04:07:47.871Z,98518.31
2023-11-28T04:10:20.730Z,98521.75
2023-11-28T04:12:54.786Z,98515.66
2023-11-28T04:15:29.165Z,98513.09
2023-11-28T04:18:02.846Z,98505.28
2023-11-28T04:20:37.139Z,98501.78
2023-11-28T04:23:10.357Z,98501.75
2023-11-28T04:25:43.320Z,98497.38
2023-11-28T04:28:16.268Z,98497.41
2023-11-28T04:30:57.426Z,98496.50
2023-11-28T04:33:32.839Z,98488.63
2023-11-28T04:36:07.328Z,98474.72
2023-11-28T04:38:40.369Z,98472.97
2023-11-28T04:41:14.236Z,98466.00
2023-11-28T04:43:48.707Z,98481.75
2023-11-28T04:46:23.590Z,98468.75
2023-11-28T04:48:56.667Z,98467.88
2023-11-28T04:51:29.528Z,98469.63
2023-11-28T04:54:02.467Z,98467.91
2023-11-28T04:56:35.765Z,98463.59
2023-11-28T04:59:09.093Z,98466.25
2023-11-28T05:01:48.211Z,98464.56
2023-11-28T05:04:21.375Z,98464.59
2023-11-28T05:06:54.625Z,98455.03
2023-11-28T05:09:28.674Z,98457.66
2023-11-28T05:12:01.687Z,98456.84
2023-11-28T05:14:35.973Z,98440.28
2023-11-28T05:17:10.869Z,98441.22
2023-11-28T05:19:44.116Z,98436.00
2023-11-28T05:22:20.772Z,98441.22
2023-11-28T05:24:54.204Z,98437.72
2023-11-28T05:27:27.115Z,98439.50
2023-11-28T05:30:00.080Z,98438.69
2023-11-28T05:32:35.108Z,98432.56
2023-11-28T05:35:08.927Z,98443.09
2023-11-28T05:37:41.932Z,98440.47
2023-11-28T05:40:16.651Z,98443.97
2023-11-28T05:42:49.680Z,98442.22
2023-11-28T05:45:22.591Z,98443.09
2023-11-28T05:47:57.003Z,98447.41
2023-11-28T05:50:30.157Z,98445.63
2023-11-28T05:53:03.203Z,98448.22
2023-11-28T05:55:36.192Z,98438.66
2023-11-28T05:58:10.164Z,98445.63
2023-11-28T06:00:42.926Z,98447.97
2023-11-28T06:03:17.532Z,98445.66
2023-11-28T06:05:50.485Z,98446.56
2023-11-28T06:08:23.481Z,98450.00
2023-11-28T06:10:56.939Z,98445.66
2023-11-28T06:13:29.807Z,98450.00
2023-11-28T06:16:06.148Z,98450.00
2023-11-28T06:18:42.549Z,98451.75
2023-11-28T06:21:16.175Z,98444.75
2023-11-28T06:23:50.845Z,98439.53
2023-11-28T06:26:26.726Z,98448.19
2023-11-28T06:28:59.770Z,98452.50
2023-11-28T06:31:32.755Z,98450.69
2023-11-28T06:34:07.105Z,98451.56
2023-11-28T06:36:40.035Z,98455.84
2023-11-28T06:39:12.873Z,98456.69
2023-11-28T06:41:46.405Z,98460.97
2023-11-28T06:44:20.186Z,98465.28
2023-11-28T06:46:53.138Z,98468.63
2023-11-28T06:49:27.450Z,98472.06
2023-11-28T06:52:01.913Z,98466.75
2023-11-28T06:54:35.321Z,98470.19
2023-11-28T06:57:08.151Z,98471.84
2023-11-28T06:59:41.144Z,98470.03
2023-11-28T07:02:14.220Z,98469.97
2023-11-28T07:04:48.836Z,98462.97
2023-11-28T07:07:22.279Z,98466.41
2023-11-28T07:09:56.078Z,98463.72
2023-11-28T07:12:29.081Z,98467.94
2023-11-28T07:15:01.959Z,98462.56
2023-11-28T07:17:35.015Z,98465.91
2023-11-28T07:20:11.186Z,98459.69
2023-11-28T07:22:44.176Z,98469.19
2023-11-28T07:25:17.120Z,98471.66
2023-11-28T07:27:49.938Z,98478.50
2023-11-28T07:30:22.807Z,98470.53
2023-11-28T07:32:55.734Z,98473.03
2023-11-28T07:35:30.008Z,98471.16
2023-11-28T07:38:03.724Z,98474.50
2023-11-28T07:40:38.511Z,98473.50
2023-11-28T07:43:11.376Z,98464.63
2023-11-28T07:45:44.343Z,98482.84
2023-11-28T07:48:17.393Z,98483.53
2023-11-28T07:50:51.682Z,98487.75
2023-11-28T07:53:24.607Z,98491.06
2023-11-28T07:55:57.462Z,98498.00
2023-11-28T07:58:30.431Z,98486.53
2023-11-28T08:01:03.346Z,98489.03
2023-11-28T08:03:36.277Z,98489.75
2023-11-28T08:06:13.484Z,98486.97
2023-11-28T08:08:46.501Z,98484.25
2023-11-28T08:11:19.569Z,98483.28
2023-11-28T08:13:52.680Z,98477.06
2023-11-28T08:16:25.682Z,98483.91
2023-11-28T08:18:58.580Z,98476.81
2023-11-28T08:21:32.796Z,98468.81
2023-11-28T08:24:06.538Z,98475.63
2023-11-28T08:26:39.585Z,98474.63
2023-11-28T08:29:12.557Z,98470.25
2023-11-28T08:31:45.568Z,98478.88
2023-11-28T08:34:18.620Z,98481.41
2023-11-28T08:36:53.107Z,98476.06
2023-11-28T08:39:29.587Z,98479.47
2023-11-28T08:42:02.476Z,98477.63
2023-11-28T08:44:36.662Z,98465.34
2023-11-28T08:47:09.554Z,98467.84
2023-11-28T08:49:44.912Z,98458.16
2023-11-28T08:52:23.880Z,98454.50
2023-11-28T08:55:07.085Z,98456.88
2023-11-28T08:57:40.077Z,98457.66
2023-11-28T09:00:18.094Z,98450.50
2023-11-28T09:02:52.731Z,98451.25
2023-11-28T09:05:25.771Z,98445.03
2023-11-28T09:08:22.781Z,98448.38
2023-11-28T09:10:55.740Z,98449.03
2023-11-28T09:13:28.934Z,98449.88
2023-11-28T09:16:04.182Z,98448.91
2023-11-28T09:18:37.733Z,98438.50
2023-11-28T09:21:13.371Z,98436.78
2023-11-28T09:23:47.676Z,98440.28
2023-11-28T09:26:20.621Z,98435.03
2023-11-28T09:28:53.655Z,98439.25
2023-11-28T09:31:32.525Z,98433.06
2023-11-28T09:34:05.507Z,98439.97
2023-11-28T09:36:38.652Z,98427.59
2023-11-28T09:39:13.379Z,98429.25
2023-11-28T09:41:49.132Z,98426.63
2023-11-28T09:44:27.282Z,98423.09
2023-11-28T09:47:08.638Z,98411.59
2023-11-28T09:49:43.748Z,98407.25
2023-11-28T09:52:17.907Z,98410.72
2023-11-28T09:54:54.004Z,98400.69
2023-11-28T09:57:33.417Z,98405.31
2023-11-28T10:00:12.159Z,98395.66
2023-11-28T10:02:46.015Z,98399.84
2023-11-28T10:05:20.097Z,98388.78
2023-11-28T10:07:55.278Z,98393.28
2023-11-28T10:10:29.591Z,98381.75
2023-11-28T10:13:02.497Z,98385.00
2023-11-28T10:15:35.374Z,98379.53
2023-11-28T10:18:08.899Z,98377.69
2023-11-28T10:20:41.820Z,98374.91
2023-11-28T10:23:16.983Z,98370.59
2023-11-28T10:25:51.681Z,98374.06
2023-11-28T10:28:24.726Z,98369.66
2023-11-28T10:30:57.628Z,98366.97
2023-11-28T10:33:30.599Z,98360.81
2023-11-28T10:36:03.580Z,98362.53
2023-11-28T10:38:38.166Z,98358.84
2023-11-28T10:41:12.435Z,98354.50
2023-11-28T10:43:46.980Z,98357.03
2023-11-28T10:46:20.302Z,98357.91
2023-11-28T10:48:53.342Z,98353.44
2023-11-28T10:51:27.487Z,98353.38
2023-11-28T10:54:05.497Z,98353.31
2023-11-28T10:56:48.283Z,98346.09
2023-11-28T10:59:27.483Z,98347.78
2023-11-28T11:02:02.446Z,98344.09
2023-11-28T11:04:36.254Z,98334.31
2023-11-28T11:07:09.780Z,98337.75
2023-11-28T11:09:42.652Z,98342.84
2023-11-28T11:12:17.934Z,98345.56
2023-11-28T11:14:58.711Z,98344.63
2023-11-28T11:17:41.989Z,98344.53
2023-11-28T11:20:18.410Z,98337.56
2023-11-28T11:22:55.154Z,98344.63
2023-11-28T11:25:40.525Z,98338.34
2023-11-28T11:28:15.172Z,98331.63
2023-11-28T11:30:48.259Z,98337.88
2023-11-28T11:33:25.599Z,98330.94
2023-11-28T11:36:10.912Z,98333.69
2023-11-28T11:38:48.111Z,98339.16
2023-11-28T11:41:22.148Z,98341.00
2023-11-28T11:43:56.884Z,98338.03
2023-11-28T11:46:29.844Z,98341.50
2023-11-28T11:49:03.769Z,98355.22
2023-11-28T11:51:36.487Z,98351.31
2023-11-28T11:54:12.307Z,98347.38
2023-11-28T11:56:45.183Z,98350.19
2023-11-28T11:59:21.678Z,98345.88
2023-11-28T12:01:55.037Z,98347.72
2023-11-28T12:04:28.240Z,98353.03
2023-11-28T12:07:06.748Z,98355.56
2023-11-28T12:09:40.205Z,98359.03
2023-11-28T12:12:14.455Z,98364.34
2023-11-28T12:14:49.112Z,98370.47
2023-11-28T12:17:22.560Z,98367.84
2023-11-28T12:19:57.085Z,98364.28
2023-11-28T12:22:31.422Z,98361.59
2023-11-28T12:25:04.586Z,98362.53
2023-11-28T12:27:37.471Z,98362.44
2023-11-28T12:30:13.529Z,98366.22
2023-11-28T12:32:46.994Z,98362.94
2023-11-28T12:35:21.915Z,98358.56
2023-11-28T12:37:56.045Z,98361.31
2023-11-28T12:40:29.193Z,98356.16
2023-11-28T12:43:03.875Z,98357.22
2023-11-28T12:45:38.085Z,98353.81
2023-11-28T12:48:12.596Z,98355.53
2023-11-28T12:50:47.797Z,98350.22
2023-11-28T12:53:21.196Z,98351.06
2023-11-28T12:55:54.223Z,98349.38
2023-11-28T12:58:27.531Z,98352.97
2023-11-28T13:01:01.770Z,98345.94
2023-11-28T13:03:37.052Z,98345.94
2023-11-28T13:06:10.894Z,98346.19
2023-11-28T13:08:43.789Z,98344.50
2023-11-28T13:11:17.838Z,98359.47
2023-11-28T13:13:50.983Z,98346.03
2023-11-28T13:16:27.852Z,98354.38
2023-11-28T13:19:01.623Z,98353.56
2023-11-28T13:21:37.064Z,98359.75
2023-11-28T13:24:16.251Z,98357.28
2023-11-28T13:26:49.105Z,98363.50
2023-11-28T13:29:24.020Z,98365.31
2023-11-28T13:31:59.821Z,98362.81
2023-11-28T13:34:32.700Z,98373.31
2023-11-28T13:37:07.185Z,98371.56
2023-11-28T13:39:42.317Z,98371.63
2023-11-28T13:42:15.212Z,98375.19
2023-11-28T13:44:48.059Z,98372.56
2023-11-28T13:47:22.897Z,98377.88
2023-11-28T13:49:57.323Z,98383.97
2023-11-28T13:52:30.390Z,98378.75
2023-11-28T13:55:03.349Z,98377.91
2023-11-28T13:57:36.270Z,98378.81
2023-11-28T14:00:09.870Z,98381.44
2023-11-28T14:02:45.772Z,98380.59
2023-11-28T14:05:20.138Z,98388.53
2023-11-28T14:07:53.055Z,98384.72
2023-11-28T14:10:26.002Z,98383.28
2023-11-28T14:12:58.927Z,98385.22
2023-11-28T14:15:32.283Z,98384.38
2023-11-28T14:18:07.136Z,98382.63
2023-11-28T14:20:40.039Z,98390.56
2023-11-28T14:23:12.946Z,98387.97
2023-11-28T14:25:46.422Z,98383.63
2023-11-28T14:28:19.334Z,98382.72
2023-11-28T14:30:52.237Z,98386.31
2023-11-28T14:33:29.787Z,98389.91
2023-11-28T14:36:02.795Z,98389.03
2023-11-28T14:38:35.725Z,98392.53
2023-11-28T14:41:09.541Z,98389.97
2023-11-28T14:43:42.466Z,98388.25
2023-11-28T14:46:15.469Z,98398.88
2023-11-28T14:48:50.249Z,98400.72
2023-11-28T14:51:23.140Z,98401.63
2023-11-28T14:53:56.044Z,98405.16
2023-11-28T14:56:29.346Z,98409.59
2023-11-28T14:59:03.849Z,98401.75
2023-11-28T15:01:38.540Z,98407.16
2023-11-28T15:04:15.992Z,98407.22
2023-11-28T15:06:51.294Z,98413.28
2023-11-28T15:09:25.087Z,98410.75
2023-11-28T15:11:58.907Z,98419.63
2023-11-28T15:14:31.913Z,98414.44
2023-11-28T15:17:04.945Z,98419.66
2023-11-28T15:19:40.633Z,98423.28
2023-11-28T15:22:15.578Z,98421.59
2023-11-28T15:24:51.451Z,98422.50
2023-11-28T15:27:24.615Z,98425.22
2023-11-28T15:29:59.923Z,98417.34
2023-11-28T15:32:33.291Z,98419.22
2023-11-28T15:35:12.789Z,98419.41
2023-11-28T15:37:52.800Z,98426.47
2023-11-28T15:40:33.679Z,98430.06
2023-11-28T15:43:10.493Z,98439.00
2023-11-28T15:45:43.359Z,98442.47
2023-11-28T15:48:16.327Z,98435.59
2023-11-28T15:50:51.133Z,98440.03
2023-11-28T15:53:24.655Z,98448.84
2023-11-28T15:55:57.626Z,98440.19
2023-11-28T15:58:30.542Z,98446.34
2023-11-28T16:01:03.467Z,98453.44
2023-11-28T16:03:38.874Z,98451.81
2023-11-28T16:06:17.037Z,98464.13
2023-11-28T16:08:52.332Z,98458.91
2023-11-28T16:11:25.882Z,98464.25
2023-11-28T16:13:59.067Z,98465.94
2023-11-28T16:16:31.982Z,98461.63
2023-11-28T16:19:05.404Z,98466.03
2023-11-28T16:21:40.122Z,98462.25
2023-11-28T16:24:15.592Z,98468.66
2023-11-28T16:26:50.486Z,98469.59
2023-11-28T16:29:23.497Z,98468.69
2023-11-28T16:31:56.381Z,98473.84
2023-11-28T16:34:29.312Z,98473.91
2023-11-28T16:37:03.618Z,98482.69
2023-11-28T16:39:41.425Z,98477.44
2023-11-28T16:42:15.641Z,98477.53
2023-11-28T16:44:48.612Z,98493.19
2023-11-28T16:47:21.802Z,98487.06
2023-11-28T16:49:54.701Z,98482.72
2023-11-28T16:52:29.220Z,98490.69
2023-11-28T16:55:02.068Z,98488.16
2023-11-28T16:57:35.523Z,98488.28
2023-11-28T17:00:11.623Z,98496.19
2023-11-28T17:02:44.929Z,98493.59
2023-11-28T17:05:19.515Z,98491.81
2023-11-28T17:07:53.911Z,98499.75
2023-11-28T17:10:29.446Z,98500.69
2023-11-28T17:13:04.131Z,98511.19
2023-11-28T17:15:37.804Z,98505.91
2023-11-28T17:18:10.878Z,98514.69
2023-11-28T17:20:44.162Z,98517.34
2023-11-28T17:23:18.639Z,98520.13
2023-11-28T17:25:51.589Z,98521.09
2023-11-28T17:28:24.430Z,98519.38
2023-11-28T17:30:57.958Z,98529.00
2023-11-28T17:33:31.451Z,98524.56
2023-11-28T17:36:04.805Z,98524.59
2023-11-28T17:38:39.438Z,98529.94
2023-11-28T17:41:17.852Z,98531.63
2023-11-28T17:43:50.727Z,98542.06
2023-11-28T17:46:23.637Z,98542.84
2023-11-28T17:48:59.893Z,98543.63
2023-11-28T17:51:33.273Z,98545.41
2023-11-28T17:54:07.693Z,98550.66
2023-11-28T17:56:42.847Z,98555.84
2023-11-28T17:59:15.736Z,98562.81
2023-11-28T18:01:49.279Z,98567.19
2023-11-28T18:04:22.170Z,98568.97
2023-11-28T18:06:58.498Z,98573.31
2023-11-28T18:09:33.616Z,98575.06
2023-11-28T18:12:07.394Z,98586.41
2023-11-28T18:14:40.508Z,98582.03
2023-11-28T18:17:13.527Z,98586.47
2023-11-28T18:19:46.447Z,98586.50
2023-11-28T18:22:20.746Z,98590.00
2023-11-28T18:24:57.485Z,98589.19
2023-11-28T18:27:30.499Z,98591.81
2023-11-28T18:30:03.416Z,98598.75
2023-11-28T18:32:36.375Z,98604.91
2023-11-28T18:35:09.574Z,98604.13
2023-11-28T18:37:42.552Z,98603.34
2023-11-28T18:40:16.904Z,98615.66
2023-11-28T18:42:50.147Z,98620.06
2023-11-28T18:45:23.114Z,98630.63
2023-11-28T18:47:57.643Z,98630.69
2023-11-28T18:50:32.478Z,98646.41
2023-11-28T18:53:05.472Z,98642.00
2023-11-28T18:55:39.951Z,98642.00
2023-11-28T18:58:12.796Z,98652.47
2023-11-28T19:00:45.878Z,98656.91
2023-11-28T19:03:19.258Z,98664.88
2023-11-28T19:05:53.170Z,98671.94
2023-11-28T19:08:26.113Z,98666.81
2023-11-28T19:11:00.386Z,98672.94
2023-11-28T19:13:33.656Z,98669.47
2023-11-28T19:16:06.999Z,98681.75
2023-11-28T19:18:41.697Z,98684.38
2023-11-28T19:21:15.107Z,98685.28
2023-11-28T19:23:51.062Z,98698.41
2023-11-28T19:26:25.433Z,98691.47
2023-11-28T19:28:58.979Z,98694.16
2023-11-28T19:31:33.360Z,98696.78
2023-11-28T19:34:06.799Z,98702.03
2023-11-28T19:36:39.650Z,98700.34
2023-11-28T19:39:21.935Z,98702.06
2023-11-28T19:41:58.061Z,98706.50
2023-11-28T19:44:31.027Z,98708.34
2023-11-28T19:47:05.730Z,98711.03
2023-11-28T19:49:38.854Z,98709.31
2023-11-28T19:52:11.834Z,98705.84
2023-11-28T19:54:44.796Z,98709.38
2023-11-28T19:57:19.858Z,98710.31
2023-11-28T19:59:53.272Z,98719.03
2023-11-28T20:02:26.620Z,98719.13
2023-11-28T20:05:01.817Z,98729.66
2023-11-28T20:07:39.316Z,98728.88
2023-11-28T20:10:12.413Z,98739.38
2023-11-28T20:12:48.247Z,98742.06
2023-11-28T20:15:21.118Z,98744.75
2023-11-28T20:17:54.109Z,98748.34
2023-11-28T20:20:27.700Z,98751.06
2023-11-28T20:23:01.063Z,98754.63
2023-11-28T20:25:34.268Z,98759.09
2023-11-28T20:28:08.628Z,98756.56
2023-11-28T20:30:42.313Z,98758.34
2023-11-28T20:33:15.233Z,98768.78
2023-11-28T20:35:53.206Z,98767.09
2023-11-28T20:38:26.243Z,98772.28
2023-11-28T20:41:07.366Z,98785.41
2023-11-28T20:43:51.227Z,98782.84
2023-11-28T20:46:25.904Z,98782.81
2023-11-28T20:49:06.192Z,98786.28
2023-11-28T20:51:39.026Z,98788.00
2023-11-28T20:54:12.361Z,98801.97
2023-11-28T20:56:45.460Z,98797.66
2023-11-28T20:59:20.250Z,98800.28
2023-11-28T21:01:53.289Z,98797.69
2023-11-28T21:04:26.230Z,98792.41
2023-11-28T21:07:10.078Z,98801.16
2023-11-28T21:09:43.669Z,98792.41
2023-11-28T21:12:18.865Z,98789.81
2023-11-28T21:14:53.536Z,98796.81
2023-11-28T21:17:26.698Z,98797.69
2023-11-28T21:20:00.536Z,98806.34
2023-11-28T21:22:34.275Z,98808.06
2023-11-28T21:25:08.077Z,98809.75
2023-11-28T21:27:41.621Z,98812.38
2023-11-28T21:30:20.317Z,98812.38
2023-11-28T21:32:53.275Z,98825.44
2023-11-28T21:35:26.934Z,98830.63
2023-11-28T21:38:00.151Z,98828.84
2023-11-28T21:40:33.743Z,98833.19
2023-11-28T21:43:07.528Z,98828.81
2023-11-28T21:45:41.989Z,98826.13
2023-11-28T21:48:22.203Z,98824.34
2023-11-28T21:50:59.023Z,98826.03
2023-11-28T21:53:37.046Z,98829.50
2023-11-28T21:56:10.443Z,98826.81
2023-11-28T21:58:43.385Z,98836.38
2023-11-28T22:01:17.888Z,98846.81
2023-11-28T22:03:51.037Z,98839.84
2023-11-28T22:06:24.351Z,98862.41
2023-11-28T22:09:02.379Z,98865.88
2023-11-28T22:11:36.552Z,98864.09
2023-11-28T22:14:09.523Z,98870.16
2023-11-28T22:16:43.834Z,98864.06
2023-11-28T22:19:16.956Z,98873.63
2023-11-28T22:21:49.872Z,98867.53
2023-11-28T22:24:23.976Z,98877.22
2023-11-28T22:26:56.970Z,98876.38
2023-11-28T22:29:30.044Z,98886.03
2023-11-28T22:32:05.162Z,98886.03
2023-11-28T22:34:38.155Z,98882.56
2023-11-28T22:37:11.879Z,98884.31
2023-11-28T22:39:44.926Z,98889.59
2023-11-28T22:42:17.781Z,98890.47
2023-11-28T22:44:51.489Z,98893.06
2023-11-28T22:47:25.872Z,98897.38
2023-11-28T22:49:58.787Z,98899.09
2023-11-28T22:52:31.727Z,98902.53
2023-11-28T22:55:07.579Z,98903.41
2023-11-28T22:57:40.627Z,98905.97
2023-11-28T23:00:16.412Z,98908.56
2023-11-28T23:02:50.880Z,98920.69
2023-11-28T23:05:23.842Z,98916.34
2023-11-28T23:07:56.734Z,98921.53
2023-11-28T23:10:29.662Z,98925.84
2023-11-28T23:13:02.525Z,98930.19
2023-11-28T23:15:35.397Z,98928.47
2023-11-28T23:18:09.684Z,98924.97
2023-11-28T23:20:43.859Z,98929.34
2023-11-28T23:23:16.770Z,98938.91
2023-11-28T23:25:49.801Z,98945.00
2023-11-28T23:28:22.732Z,98938.91
2023-11-28T23:30:56.184Z,98939.72
2023-11-28T23:33:31.242Z,98943.22
2023-11-28T23:36:04.462Z,98941.50
2023-11-28T23:38:37.404Z,98946.75
2023-11-28T23:41:10.572Z,98945.94
2023-11-28T23:43:43.505Z,98957.22
2023-11-28T23:46:16.439Z,98955.44
2023-11-28T23:48:53.532Z,98965.03
2023-11-28T23:51:26.563Z,98963.22
2023-11-28T23:53:59.677Z,98967.56
2023-11-28T23:56:32.685Z,98971.06
2023-11-28T23:59:05.841Z,98967.56
